sensor_id;sensor_type;location;lat;lon;timestamp;pressure;altitude;pressure_sealevel;temperature;humidity
65758;BME280;52495;52.208;5.158;2022-12-18T00:02:13;102793.28;;;-2.11;88.34
65758;BME280;52495;52.208;5.158;2022-12-18T00:04:41;102789.69;;;-2.15;88.93
65758;BME280;52495;52.208;5.158;2022-12-18T00:07:08;102788.81;;;-2.16;88.52
65758;BME280;52495;52.208;5.158;2022-12-18T00:09:35;102793.28;;;-2.11;88.26
65758;BME280;52495;52.208;5.158;2022-12-18T00:12:02;102786.41;;;-2.01;87.99
65758;BME280;52495;52.208;5.158;2022-12-18T00:14:29;102786.59;;;-2.11;88.45
65758;BME280;52495;52.208;5.158;2022-12-18T00:16:56;102786.59;;;-2.11;88.57
65758;BME280;52495;52.208;5.158;2022-12-18T00:19:26;102785.50;;;-2.15;88.09
65758;BME280;52495;52.208;5.158;2022-12-18T00:21:54;102786.16;;;-2.17;87.98
65758;BME280;52495;52.208;5.158;2022-12-18T00:24:21;102789.00;;;-2.13;88.59
65758;BME280;52495;52.208;5.158;2022-12-18T00:26:48;102782.28;;;-2.12;88.42
65758;BME280;52495;52.208;5.158;2022-12-18T00:29:14;102783.06;;;-2.13;88.33
65758;BME280;52495;52.208;5.158;2022-12-18T00:31:43;102790.44;;;-2.16;87.89
65758;BME280;52495;52.208;5.158;2022-12-18T00:34:11;102782.00;;;-2.17;88.23
65758;BME280;52495;52.208;5.158;2022-12-18T00:36:40;102780.72;;;-2.23;87.38
65758;BME280;52495;52.208;5.158;2022-12-18T00:39:10;102781.28;;;-2.27;87.72
65758;BME280;52495;52.208;5.158;2022-12-18T00:41:37;102776.00;;;-2.31;88.11
65758;BME280;52495;52.208;5.158;2022-12-18T00:44:21;102780.84;;;-2.34;88.06
65758;BME280;52495;52.208;5.158;2022-12-18T00:46:48;102776.69;;;-2.33;89.04
65758;BME280;52495;52.208;5.158;2022-12-18T00:49:16;102783.50;;;-2.32;88.62
65758;BME280;52495;52.208;5.158;2022-12-18T00:51:43;102792.22;;;-2.15;86.94
65758;BME280;52495;52.208;5.158;2022-12-18T00:54:11;102795.25;;;-2.33;87.29
65758;BME280;52495;52.208;5.158;2022-12-18T00:56:39;102783.59;;;-2.31;87.09
65758;BME280;52495;52.208;5.158;2022-12-18T00:59:06;102782.97;;;-2.40;87.43
65758;BME280;52495;52.208;5.158;2022-12-18T01:01:33;102772.75;;;-2.41;87.99
65758;BME280;52495;52.208;5.158;2022-12-18T01:04:05;102777.47;;;-2.34;87.05
65758;BME280;52495;52.208;5.158;2022-12-18T01:06:32;102780.25;;;-2.43;87.41
65758;BME280;52495;52.208;5.158;2022-12-18T01:08:59;102776.72;;;-2.45;88.17
65758;BME280;52495;52.208;5.158;2022-12-18T01:11:27;102784.53;;;-2.42;87.38
65758;BME280;52495;52.208;5.158;2022-12-18T01:13:54;102780.72;;;-2.49;87.12
65758;BME280;52495;52.208;5.158;2022-12-18T01:16:22;102786.19;;;-2.54;87.78
65758;BME280;52495;52.208;5.158;2022-12-18T01:18:52;102776.00;;;-2.56;87.45
65758;BME280;52495;52.208;5.158;2022-12-18T01:21:19;102780.19;;;-2.56;87.59
65758;BME280;52495;52.208;5.158;2022-12-18T01:23:46;102782.81;;;-2.55;87.58
65758;BME280;52495;52.208;5.158;2022-12-18T01:26:15;102786.03;;;-2.57;87.31
65758;BME280;52495;52.208;5.158;2022-12-18T01:28:44;102782.03;;;-2.54;87.21
65758;BME280;52495;52.208;5.158;2022-12-18T01:31:13;102787.09;;;-2.54;87.17
65758;BME280;52495;52.208;5.158;2022-12-18T01:33:40;102793.38;;;-2.61;87.12
65758;BME280;52495;52.208;5.158;2022-12-18T01:36:07;102784.59;;;-2.66;87.40
65758;BME280;52495;52.208;5.158;2022-12-18T01:38:34;102791.31;;;-2.66;87.13
65758;BME280;52495;52.208;5.158;2022-12-18T01:41:02;102785.94;;;-2.71;87.13
65758;BME280;52495;52.208;5.158;2022-12-18T01:43:49;102785.84;;;-2.72;87.53
65758;BME280;52495;52.208;5.158;2022-12-18T01:46:17;102777.56;;;-2.70;87.51
65758;BME280;52495;52.208;5.158;2022-12-18T01:48:47;102784.75;;;-2.76;87.33
65758;BME280;52495;52.208;5.158;2022-12-18T01:51:14;102784.84;;;-2.75;87.25
65758;BME280;52495;52.208;5.158;2022-12-18T01:53:42;102799.25;;;-2.73;86.82
65758;BME280;52495;52.208;5.158;2022-12-18T01:56:13;102810.69;;;-2.79;86.82
65758;BME280;52495;52.208;5.158;2022-12-18T01:58:54;102823.09;;;-2.82;86.85
65758;BME280;52495;52.208;5.158;2022-12-18T02:01:23;102820.34;;;-2.73;86.72
65758;BME280;52495;52.208;5.158;2022-12-18T02:03:51;102825.06;;;-2.78;87.24
65758;BME280;52495;52.208;5.158;2022-12-18T02:06:20;102818.94;;;-2.81;87.02
65758;BME280;52495;52.208;5.158;2022-12-18T02:09:00;102822.16;;;-2.84;87.10
65758;BME280;52495;52.208;5.158;2022-12-18T02:11:39;102835.75;;;-2.82;87.55
65758;BME280;52495;52.208;5.158;2022-12-18T02:14:18;102840.91;;;-2.80;87.03
65758;BME280;52495;52.208;5.158;2022-12-18T02:16:52;102842.47;;;-2.82;87.41
65758;BME280;52495;52.208;5.158;2022-12-18T02:19:34;102838.25;;;-2.82;87.14
65758;BME280;52495;52.208;5.158;2022-12-18T02:22:15;102850.25;;;-2.79;86.94
65758;BME280;52495;52.208;5.158;2022-12-18T02:24:48;102845.75;;;-2.83;86.85
65758;BME280;52495;52.208;5.158;2022-12-18T02:27:22;102837.94;;;-2.86;87.33
65758;BME280;52495;52.208;5.158;2022-12-18T02:29:51;102842.25;;;-2.85;87.00
65758;BME280;52495;52.208;5.158;2022-12-18T02:32:22;102840.59;;;-2.85;86.88
65758;BME280;52495;52.208;5.158;2022-12-18T02:34:52;102836.53;;;-2.83;87.17
65758;BME280;52495;52.208;5.158;2022-12-18T02:37:24;102824.31;;;-2.88;87.20
65758;BME280;52495;52.208;5.158;2022-12-18T02:39:53;102832.13;;;-2.85;87.83
65758;BME280;52495;52.208;5.158;2022-12-18T02:42:22;102821.56;;;-2.80;87.47
65758;BME280;52495;52.208;5.158;2022-12-18T02:44:51;102805.97;;;-2.86;87.15
65758;BME280;52495;52.208;5.158;2022-12-18T02:47:24;102802.56;;;-2.86;87.09
65758;BME280;52495;52.208;5.158;2022-12-18T02:50:01;102807.53;;;-2.88;87.50
65758;BME280;52495;52.208;5.158;2022-12-18T02:52:36;102801.91;;;-2.84;87.23
65758;BME280;52495;52.208;5.158;2022-12-18T02:55:17;102794.75;;;-2.90;86.72
65758;BME280;52495;52.208;5.158;2022-12-18T02:57:54;102791.81;;;-2.96;86.15
65758;BME280;52495;52.208;5.158;2022-12-18T03:00:33;102789.06;;;-2.99;86.47
65758;BME280;52495;52.208;5.158;2022-12-18T03:03:05;102789.63;;;-3.03;86.45
65758;BME280;52495;52.208;5.158;2022-12-18T03:05:36;102782.72;;;-3.06;86.08
65758;BME280;52495;52.208;5.158;2022-12-18T03:08:07;102786.56;;;-3.11;85.86
65758;BME280;52495;52.208;5.158;2022-12-18T03:10:40;102781.41;;;-3.12;85.78
65758;BME280;52495;52.208;5.158;2022-12-18T03:13:13;102781.97;;;-3.16;85.93
65758;BME280;52495;52.208;5.158;2022-12-18T03:15:46;102781.66;;;-3.21;85.72
65758;BME280;52495;52.208;5.158;2022-12-18T03:18:17;102773.06;;;-3.23;86.07
65758;BME280;52495;52.208;5.158;2022-12-18T03:20:47;102763.28;;;-3.30;85.63
65758;BME280;52495;52.208;5.158;2022-12-18T03:23:22;102760.75;;;-3.30;86.05
65758;BME280;52495;52.208;5.158;2022-12-18T03:25:52;102764.19;;;-3.42;85.93
65758;BME280;52495;52.208;5.158;2022-12-18T03:28:24;102755.84;;;-3.41;86.39
65758;BME280;52495;52.208;5.158;2022-12-18T03:30:59;102756.28;;;-3.46;85.96
65758;BME280;52495;52.208;5.158;2022-12-18T03:33:30;102748.72;;;-3.46;86.04
65758;BME280;52495;52.208;5.158;2022-12-18T03:35:58;102751.09;;;-3.48;86.64
65758;BME280;52495;52.208;5.158;2022-12-18T03:38:25;102743.53;;;-3.48;86.38
65758;BME280;52495;52.208;5.158;2022-12-18T03:40:58;102751.69;;;-3.52;86.18
65758;BME280;52495;52.208;5.158;2022-12-18T03:43:36;102749.03;;;-3.54;86.16
65758;BME280;52495;52.208;5.158;2022-12-18T03:46:12;102747.94;;;-3.57;85.17
65758;BME280;52495;52.208;5.158;2022-12-18T03:48:43;102743.00;;;-3.56;85.98
65758;BME280;52495;52.208;5.158;2022-12-18T03:51:18;102743.75;;;-3.57;85.77
65758;BME280;52495;52.208;5.158;2022-12-18T03:53:53;102745.84;;;-3.63;84.69
65758;BME280;52495;52.208;5.158;2022-12-18T03:56:29;102728.63;;;-3.69;85.02
65758;BME280;52495;52.208;5.158;2022-12-18T03:59:01;102736.97;;;-3.70;85.21
65758;BME280;52495;52.208;5.158;2022-12-18T04:01:33;102728.50;;;-3.58;84.88
65758;BME280;52495;52.208;5.158;2022-12-18T04:04:01;102732.34;;;-3.75;84.76
65758;BME280;52495;52.208;5.158;2022-12-18T04:06:33;102731.38;;;-3.77;84.64
65758;BME280;52495;52.208;5.158;2022-12-18T04:09:00;102720.28;;;-3.79;84.61
65758;BME280;52495;52.208;5.158;2022-12-18T04:11:29;102712.34;;;-3.84;85.20
65758;BME280;52495;52.208;5.158;2022-12-18T04:13:57;102705.44;;;-3.87;84.22
65758;BME280;52495;52.208;5.158;2022-12-18T04:16:26;102708.09;;;-3.85;84.26
65758;BME280;52495;52.208;5.158;2022-12-18T04:18:57;102703.16;;;-3.84;84.24
65758;BME280;52495;52.208;5.158;2022-12-18T04:21:26;102703.25;;;-3.82;84.30
65758;BME280;52495;52.208;5.158;2022-12-18T04:23:52;102708.19;;;-3.84;84.13
65758;BME280;52495;52.208;5.158;2022-12-18T04:26:21;102707.13;;;-3.87;83.66
65758;BME280;52495;52.208;5.158;2022-12-18T04:29:11;102709.63;;;-3.87;83.81
65758;BME280;52495;52.208;5.158;2022-12-18T04:31:40;102715.53;;;-3.87;84.16
65758;BME280;52495;52.208;5.158;2022-12-18T04:34:06;102720.50;;;-3.88;83.27
65758;BME280;52495;52.208;5.158;2022-12-18T04:36:39;102719.59;;;-3.89;83.29
65758;BME280;52495;52.208;5.158;2022-12-18T04:39:06;102721.78;;;-3.93;83.69
65758;BME280;52495;52.208;5.158;2022-12-18T04:41:33;102727.16;;;-4.01;82.90
65758;BME280;52495;52.208;5.158;2022-12-18T04:44:01;102739.44;;;-4.05;82.17
65758;BME280;52495;52.208;5.158;2022-12-18T04:46:28;102736.47;;;-4.12;83.37
65758;BME280;52495;52.208;5.158;2022-12-18T04:48:56;102740.81;;;-4.21;82.22
65758;BME280;52495;52.208;5.158;2022-12-18T04:51:22;102741.59;;;-4.22;82.98
65758;BME280;52495;52.208;5.158;2022-12-18T04:53:49;102739.72;;;-4.24;82.36
65758;BME280;52495;52.208;5.158;2022-12-18T04:56:16;102749.81;;;-4.24;82.82
65758;BME280;52495;52.208;5.158;2022-12-18T04:58:44;102756.63;;;-4.23;82.51
65758;BME280;52495;52.208;5.158;2022-12-18T05:01:12;102755.53;;;-4.27;82.54
65758;BME280;52495;52.208;5.158;2022-12-18T05:03:39;102771.81;;;-4.34;83.40
65758;BME280;52495;52.208;5.158;2022-12-18T05:06:08;102767.53;;;-4.35;83.54
65758;BME280;52495;52.208;5.158;2022-12-18T05:08:35;102763.03;;;-4.39;82.27
65758;BME280;52495;52.208;5.158;2022-12-18T05:11:03;102777.16;;;-4.41;82.24
65758;BME280;52495;52.208;5.158;2022-12-18T05:13:31;102765.19;;;-4.44;82.50
65758;BME280;52495;52.208;5.158;2022-12-18T05:15:58;102768.72;;;-4.42;82.29
65758;BME280;52495;52.208;5.158;2022-12-18T05:18:25;102774.50;;;-4.43;82.38
65758;BME280;52495;52.208;5.158;2022-12-18T05:20:53;102772.75;;;-4.44;82.38
65758;BME280;52495;52.208;5.158;2022-12-18T05:23:22;102777.94;;;-4.42;83.32
65758;BME280;52495;52.208;5.158;2022-12-18T05:25:51;102800.16;;;-4.48;83.11
65758;BME280;52495;52.208;5.158;2022-12-18T05:28:18;102798.38;;;-4.49;82.84
65758;BME280;52495;52.208;5.158;2022-12-18T05:30:48;102799.91;;;-4.51;83.51
65758;BME280;52495;52.208;5.158;2022-12-18T05:33:14;102801.03;;;-4.48;82.42
65758;BME280;52495;52.208;5.158;2022-12-18T05:35:41;102797.75;;;-4.47;82.24
65758;BME280;52495;52.208;5.158;2022-12-18T05:38:08;102782.25;;;-4.51;82.47
65758;BME280;52495;52.208;5.158;2022-12-18T05:40:36;102769.44;;;-4.54;82.45
65758;BME280;52495;52.208;5.158;2022-12-18T05:43:03;102764.84;;;-4.48;82.93
65758;BME280;52495;52.208;5.158;2022-12-18T05:45:29;102766.63;;;-4.47;82.31
65758;BME280;52495;52.208;5.158;2022-12-18T05:47:56;102769.66;;;-4.51;82.34
65758;BME280;52495;52.208;5.158;2022-12-18T05:50:23;102766.28;;;-4.52;82.71
65758;BME280;52495;52.208;5.158;2022-12-18T05:52:49;102760.34;;;-4.52;82.51
65758;BME280;52495;52.208;5.158;2022-12-18T05:55:16;102754.44;;;-4.53;83.71
65758;BME280;52495;52.208;5.158;2022-12-18T05:57:44;102742.59;;;-4.54;83.07
65758;BME280;52495;52.208;5.158;2022-12-18T06:00:12;102744.59;;;-4.50;82.78
65758;BME280;52495;52.208;5.158;2022-12-18T06:02:39;102749.38;;;-4.53;81.73
65758;BME280;52495;52.208;5.158;2022-12-18T06:05:06;102745.63;;;-4.58;82.78
65758;BME280;52495;52.208;5.158;2022-12-18T06:07:33;102749.47;;;-4.63;82.38
65758;BME280;52495;52.208;5.158;2022-12-18T06:09:59;102744.53;;;-4.62;81.77
65758;BME280;52495;52.208;5.158;2022-12-18T06:12:26;102743.53;;;-4.64;81.40
65758;BME280;52495;52.208;5.158;2022-12-18T06:14:54;102734.09;;;-4.66;82.30
65758;BME280;52495;52.208;5.158;2022-12-18T06:17:21;102737.63;;;-4.64;81.46
65758;BME280;52495;52.208;5.158;2022-12-18T06:19:47;102731.34;;;-4.69;82.19
65758;BME280;52495;52.208;5.158;2022-12-18T06:22:14;102734.22;;;-4.65;82.05
65758;BME280;52495;52.208;5.158;2022-12-18T06:24:42;102738.63;;;-4.62;81.91
65758;BME280;52495;52.208;5.158;2022-12-18T06:27:08;102743.66;;;-4.62;82.08
65758;BME280;52495;52.208;5.158;2022-12-18T06:29:35;102734.44;;;-4.62;82.14
65758;BME280;52495;52.208;5.158;2022-12-18T06:32:03;102727.78;;;-4.61;82.00
65758;BME280;52495;52.208;5.158;2022-12-18T06:34:30;102726.53;;;-4.66;82.17
65758;BME280;52495;52.208;5.158;2022-12-18T06:36:58;102723.03;;;-4.68;81.60
65758;BME280;52495;52.208;5.158;2022-12-18T06:39:27;102715.88;;;-4.74;81.91
65758;BME280;52495;52.208;5.158;2022-12-18T06:41:54;102714.88;;;-4.76;80.46
65758;BME280;52495;52.208;5.158;2022-12-18T06:44:20;102710.25;;;-4.82;80.46
65758;BME280;52495;52.208;5.158;2022-12-18T06:46:47;102697.53;;;-4.83;80.51
65758;BME280;52495;52.208;5.158;2022-12-18T06:49:15;102688.00;;;-4.88;80.17
65758;BME280;52495;52.208;5.158;2022-12-18T06:51:42;102686.78;;;-4.93;80.65
65758;BME280;52495;52.208;5.158;2022-12-18T06:54:09;102686.94;;;-5.01;79.38
65758;BME280;52495;52.208;5.158;2022-12-18T06:56:35;102688.34;;;-5.05;80.50
65758;BME280;52495;52.208;5.158;2022-12-18T06:59:02;102684.09;;;-5.06;79.88
65758;BME280;52495;52.208;5.158;2022-12-18T07:01:29;102682.44;;;-5.06;81.27
65758;BME280;52495;52.208;5.158;2022-12-18T07:03:57;102672.50;;;-5.04;81.24
65758;BME280;52495;52.208;5.158;2022-12-18T07:06:25;102678.63;;;-5.00;81.80
65758;BME280;52495;52.208;5.158;2022-12-18T07:08:53;102681.38;;;-4.97;82.03
65758;BME280;52495;52.208;5.158;2022-12-18T07:11:21;102674.69;;;-4.97;81.92
65758;BME280;52495;52.208;5.158;2022-12-18T07:13:47;102676.56;;;-4.94;81.34
65758;BME280;52495;52.208;5.158;2022-12-18T07:16:15;102682.50;;;-4.94;81.06
65758;BME280;52495;52.208;5.158;2022-12-18T07:18:43;102671.31;;;-4.97;80.65
65758;BME280;52495;52.208;5.158;2022-12-18T07:21:13;102674.81;;;-4.95;80.43
65758;BME280;52495;52.208;5.158;2022-12-18T07:23:41;102659.91;;;-5.04;80.76
65758;BME280;52495;52.208;5.158;2022-12-18T07:26:09;102670.84;;;-5.04;80.61
65758;BME280;52495;52.208;5.158;2022-12-18T07:28:37;102670.06;;;-5.03;80.88
65758;BME280;52495;52.208;5.158;2022-12-18T07:31:05;102663.03;;;-5.07;80.16
65758;BME280;52495;52.208;5.158;2022-12-18T07:33:33;102656.59;;;-5.03;80.86
65758;BME280;52495;52.208;5.158;2022-12-18T07:36:00;102646.41;;;-5.05;80.48
65758;BME280;52495;52.208;5.158;2022-12-18T07:38:27;102653.47;;;-5.11;79.98
65758;BME280;52495;52.208;5.158;2022-12-18T07:41:00;102645.81;;;-5.12;81.20
65758;BME280;52495;52.208;5.158;2022-12-18T07:43:27;102634.66;;;-5.16;80.73
65758;BME280;52495;52.208;5.158;2022-12-18T07:45:53;102632.13;;;-5.16;80.96
65758;BME280;52495;52.208;5.158;2022-12-18T07:48:20;102617.59;;;-5.08;82.08
65758;BME280;52495;52.208;5.158;2022-12-18T07:50:47;102617.94;;;-5.04;81.76
65758;BME280;52495;52.208;5.158;2022-12-18T07:53:14;102617.84;;;-5.05;82.19
65758;BME280;52495;52.208;5.158;2022-12-18T07:55:40;102611.03;;;-5.06;80.37
65758;BME280;52495;52.208;5.158;2022-12-18T07:58:09;102613.47;;;-4.96;81.30
65758;BME280;52495;52.208;5.158;2022-12-18T08:00:36;102614.72;;;-4.91;81.46
65758;BME280;52495;52.208;5.158;2022-12-18T08:03:03;102612.44;;;-4.88;80.94
65758;BME280;52495;52.208;5.158;2022-12-18T08:05:29;102604.75;;;-4.89;80.80
65758;BME280;52495;52.208;5.158;2022-12-18T08:07:58;102601.34;;;-4.90;81.17
65758;BME280;52495;52.208;5.158;2022-12-18T08:10:24;102610.09;;;-4.84;81.02
65758;BME280;52495;52.208;5.158;2022-12-18T08:12:52;102613.75;;;-4.81;82.16
65758;BME280;52495;52.208;5.158;2022-12-18T08:15:20;102620.00;;;-4.76;81.93
65758;BME280;52495;52.208;5.158;2022-12-18T08:17:46;102617.84;;;-4.71;81.37
65758;BME280;52495;52.208;5.158;2022-12-18T08:20:13;102634.06;;;-4.67;81.74
65758;BME280;52495;52.208;5.158;2022-12-18T08:22:40;102638.34;;;-4.66;81.92
65758;BME280;52495;52.208;5.158;2022-12-18T08:25:07;102634.81;;;-4.68;82.00
65758;BME280;52495;52.208;5.158;2022-12-18T08:27:34;102642.38;;;-4.68;80.75
65758;BME280;52495;52.208;5.158;2022-12-18T08:30:02;102637.00;;;-4.73;80.71
65758;BME280;52495;52.208;5.158;2022-12-18T08:32:31;102645.00;;;-4.79;81.38
65758;BME280;52495;52.208;5.158;2022-12-18T08:34:58;102650.22;;;-4.76;80.63
65758;BME280;52495;52.208;5.158;2022-12-18T08:37:25;102646.44;;;-4.70;80.73
65758;BME280;52495;52.208;5.158;2022-12-18T08:39:52;102644.66;;;-4.72;81.69
65758;BME280;52495;52.208;5.158;2022-12-18T08:42:18;102638.09;;;-4.69;82.53
65758;BME280;52495;52.208;5.158;2022-12-18T08:45:03;102633.16;;;-4.68;81.88
65758;BME280;52495;52.208;5.158;2022-12-18T08:47:31;102620.69;;;-4.66;82.20
65758;BME280;52495;52.208;5.158;2022-12-18T08:49:58;102620.38;;;-4.59;82.18
65758;BME280;52495;52.208;5.158;2022-12-18T08:52:24;102616.03;;;-4.50;83.43
65758;BME280;52495;52.208;5.158;2022-12-18T08:54:51;102617.56;;;-4.40;83.68
65758;BME280;52495;52.208;5.158;2022-12-18T08:57:18;102624.81;;;-4.21;82.41
65758;BME280;52495;52.208;5.158;2022-12-18T08:59:45;102624.38;;;-4.15;82.84
65758;BME280;52495;52.208;5.158;2022-12-18T09:02:11;102624.81;;;-4.09;83.27
65758;BME280;52495;52.208;5.158;2022-12-18T09:04:39;102607.38;;;-4.06;83.60
65758;BME280;52495;52.208;5.158;2022-12-18T09:07:06;102599.59;;;-3.97;82.83
65758;BME280;52495;52.208;5.158;2022-12-18T09:09:34;102610.56;;;-3.97;83.44
65758;BME280;52495;52.208;5.158;2022-12-18T09:12:02;102610.09;;;-3.91;83.21
65758;BME280;52495;52.208;5.158;2022-12-18T09:14:29;102614.84;;;-3.84;83.48
65758;BME280;52495;52.208;5.158;2022-12-18T09:16:56;102625.47;;;-3.76;83.45
65758;BME280;52495;52.208;5.158;2022-12-18T09:19:23;102626.56;;;-3.72;84.03
65758;BME280;52495;52.208;5.158;2022-12-18T09:21:50;102614.47;;;-3.64;83.73
65758;BME280;52495;52.208;5.158;2022-12-18T09:24:17;102611.50;;;-3.59;83.79
65758;BME280;52495;52.208;5.158;2022-12-18T09:26:44;102610.84;;;-3.56;83.52
65758;BME280;52495;52.208;5.158;2022-12-18T09:29:11;102615.44;;;-3.51;83.50
65758;BME280;52495;52.208;5.158;2022-12-18T09:31:38;102595.97;;;-3.40;83.08
65758;BME280;52495;52.208;5.158;2022-12-18T09:34:05;102595.97;;;-3.40;83.77
65758;BME280;52495;52.208;5.158;2022-12-18T09:36:32;102601.00;;;-3.28;82.71
65758;BME280;52495;52.208;5.158;2022-12-18T09:39:00;102599.25;;;-3.29;83.38
65758;BME280;52495;52.208;5.158;2022-12-18T09:41:44;102591.97;;;-3.24;82.44
65758;BME280;52495;52.208;5.158;2022-12-18T09:44:18;102591.66;;;-3.29;82.72
65758;BME280;52495;52.208;5.158;2022-12-18T09:46:51;102597.88;;;-3.24;82.79
65758;BME280;52495;52.208;5.158;2022-12-18T09:49:22;102596.00;;;-3.14;83.02
65758;BME280;52495;52.208;5.158;2022-12-18T09:51:53;102588.50;;;-3.13;83.02
65758;BME280;52495;52.208;5.158;2022-12-18T09:54:26;102576.50;;;-3.03;83.30
65758;BME280;52495;52.208;5.158;2022-12-18T09:56:56;102580.09;;;-3.00;83.36
65758;BME280;52495;52.208;5.158;2022-12-18T09:59:24;102567.13;;;-2.93;83.29
65758;BME280;52495;52.208;5.158;2022-12-18T10:01:52;102554.78;;;-2.88;83.13
65758;BME280;52495;52.208;5.158;2022-12-18T10:04:19;102544.28;;;-2.81;83.15
65758;BME280;52495;52.208;5.158;2022-12-18T10:06:51;102547.22;;;-2.75;82.80
65758;BME280;52495;52.208;5.158;2022-12-18T10:09:28;102553.94;;;-2.75;82.70
65758;BME280;52495;52.208;5.158;2022-12-18T10:12:04;102568.50;;;-2.71;83.15
65758;BME280;52495;52.208;5.158;2022-12-18T10:14:42;102571.81;;;-2.72;83.54
65758;BME280;52495;52.208;5.158;2022-12-18T10:17:19;102588.94;;;-2.68;83.15
65758;BME280;52495;52.208;5.158;2022-12-18T10:19:53;102596.03;;;-2.62;83.07
65758;BME280;52495;52.208;5.158;2022-12-18T10:22:35;102582.06;;;-2.57;83.55
65758;BME280;52495;52.208;5.158;2022-12-18T10:25:18;102565.63;;;-2.50;83.23
65758;BME280;52495;52.208;5.158;2022-12-18T10:27:47;102555.72;;;-2.47;83.06
65758;BME280;52495;52.208;5.158;2022-12-18T10:30:18;102560.06;;;-2.45;83.01
65758;BME280;52495;52.208;5.158;2022-12-18T10:32:45;102549.47;;;-2.39;83.50
65758;BME280;52495;52.208;5.158;2022-12-18T10:35:19;102561.53;;;-2.35;82.49
65758;BME280;52495;52.208;5.158;2022-12-18T10:38:00;102563.50;;;-2.31;82.93
65758;BME280;52495;52.208;5.158;2022-12-18T10:40:29;102548.50;;;-2.27;83.42
65758;BME280;52495;52.208;5.158;2022-12-18T10:43:04;102535.94;;;-2.26;83.53
65758;BME280;52495;52.208;5.158;2022-12-18T10:45:31;102533.13;;;-2.17;83.32
65758;BME280;52495;52.208;5.158;2022-12-18T10:47:58;102536.75;;;-2.14;83.05
65758;BME280;52495;52.208;5.158;2022-12-18T10:50:28;102533.50;;;-2.11;83.41
65758;BME280;52495;52.208;5.158;2022-12-18T10:52:57;102534.50;;;-2.09;83.57
65758;BME280;52495;52.208;5.158;2022-12-18T10:55:27;102533.88;;;-2.05;83.08
65758;BME280;52495;52.208;5.158;2022-12-18T10:58:13;102521.63;;;-1.99;83.66
65758;BME280;52495;52.208;5.158;2022-12-18T11:00:42;102510.13;;;-1.93;83.07
65758;BME280;52495;52.208;5.158;2022-12-18T11:03:29;102501.84;;;-1.91;82.18
65758;BME280;52495;52.208;5.158;2022-12-18T11:06:03;102498.44;;;-1.91;82.75
65758;BME280;52495;52.208;5.158;2022-12-18T11:08:30;102497.66;;;-1.90;82.92
65758;BME280;52495;52.208;5.158;2022-12-18T11:10:57;102503.00;;;-1.86;82.76
65758;BME280;52495;52.208;5.158;2022-12-18T11:13:27;102496.44;;;-1.82;82.90
65758;BME280;52495;52.208;5.158;2022-12-18T11:15:55;102489.91;;;-1.78;82.55
65758;BME280;52495;52.208;5.158;2022-12-18T11:18:30;102487.75;;;-1.72;82.72
65758;BME280;52495;52.208;5.158;2022-12-18T11:20:59;102483.84;;;-1.67;83.11
65758;BME280;52495;52.208;5.158;2022-12-18T11:23:28;102475.66;;;-1.63;82.52
65758;BME280;52495;52.208;5.158;2022-12-18T11:25:56;102476.91;;;-1.56;82.08
65758;BME280;52495;52.208;5.158;2022-12-18T11:28:46;102482.31;;;-1.50;82.35
65758;BME280;52495;52.208;5.158;2022-12-18T11:31:25;102479.88;;;-1.48;82.93
65758;BME280;52495;52.208;5.158;2022-12-18T11:33:58;102473.41;;;-1.43;82.34
65758;BME280;52495;52.208;5.158;2022-12-18T11:36:29;102485.59;;;-1.38;82.20
65758;BME280;52495;52.208;5.158;2022-12-18T11:39:03;102478.13;;;-1.34;82.22
65758;BME280;52495;52.208;5.158;2022-12-18T11:41:36;102478.50;;;-1.28;82.18
65758;BME280;52495;52.208;5.158;2022-12-18T11:44:27;102471.41;;;-1.19;82.71
65758;BME280;52495;52.208;5.158;2022-12-18T11:47:00;102471.41;;;-1.19;82.03
65758;BME280;52495;52.208;5.158;2022-12-18T11:49:28;102472.31;;;-1.18;82.36
65758;BME280;52495;52.208;5.158;2022-12-18T11:52:01;102466.47;;;-1.17;81.82
65758;BME280;52495;52.208;5.158;2022-12-18T11:54:30;102453.00;;;-1.16;82.01
65758;BME280;52495;52.208;5.158;2022-12-18T11:57:05;102447.41;;;-1.11;81.62
65758;BME280;52495;52.208;5.158;2022-12-18T11:59:39;102426.09;;;-1.14;80.92
65758;BME280;52495;52.208;5.158;2022-12-18T12:02:28;102418.47;;;-1.14;81.29
65758;BME280;52495;52.208;5.158;2022-12-18T12:05:20;102416.47;;;-1.20;80.60
65758;BME280;52495;52.208;5.158;2022-12-18T12:07:57;102409.03;;;-1.17;81.47
65758;BME280;52495;52.208;5.158;2022-12-18T12:10:38;102400.81;;;-1.13;81.40
65758;BME280;52495;52.208;5.158;2022-12-18T12:13:19;102401.06;;;-1.08;81.82
65758;BME280;52495;52.208;5.158;2022-12-18T12:15:58;102407.09;;;-1.06;82.34
65758;BME280;52495;52.208;5.158;2022-12-18T12:18:33;102399.91;;;-0.98;81.22
65758;BME280;52495;52.208;5.158;2022-12-18T12:21:12;102388.13;;;-0.98;81.35
65758;BME280;52495;52.208;5.158;2022-12-18T12:23:48;102387.59;;;-0.92;81.94
65758;BME280;52495;52.208;5.158;2022-12-18T12:26:23;102388.81;;;-0.85;81.25
65758;BME280;52495;52.208;5.158;2022-12-18T12:29:03;102388.81;;;-0.85;80.79
65758;BME280;52495;52.208;5.158;2022-12-18T12:31:47;102384.06;;;-0.79;81.36
65758;BME280;52495;52.208;5.158;2022-12-18T12:34:21;102381.59;;;-0.78;80.65
65758;BME280;52495;52.208;5.158;2022-12-18T12:36:59;102385.09;;;-0.75;80.88
65758;BME280;52495;52.208;5.158;2022-12-18T12:39:32;102371.81;;;-0.71;80.48
65758;BME280;52495;52.208;5.158;2022-12-18T12:42:02;102362.94;;;-0.63;80.29
65758;BME280;52495;52.208;5.158;2022-12-18T12:44:50;102359.38;;;-0.67;79.87
65758;BME280;52495;52.208;5.158;2022-12-18T12:47:22;102358.41;;;-0.69;79.58
65758;BME280;52495;52.208;5.158;2022-12-18T12:49:51;102351.81;;;-0.65;79.99
65758;BME280;52495;52.208;5.158;2022-12-18T12:52:28;102352.56;;;-0.68;79.68
65758;BME280;52495;52.208;5.158;2022-12-18T12:54:57;102351.81;;;-0.65;79.81
65758;BME280;52495;52.208;5.158;2022-12-18T12:57:31;102350.19;;;-0.65;79.45
65758;BME280;52495;52.208;5.158;2022-12-18T13:00:04;102352.00;;;-0.62;79.79
65758;BME280;52495;52.208;5.158;2022-12-18T13:02:36;102355.44;;;-0.62;79.30
65758;BME280;52495;52.208;5.158;2022-12-18T13:05:16;102342.75;;;-0.62;78.92
65758;BME280;52495;52.208;5.158;2022-12-18T13:07:51;102343.94;;;-0.55;79.57